createdAt,value
2017-02-23T00:00:28.348Z,0
2017-02-23T00:01:29.319Z,0
2017-02-23T00:02:28.945Z,0
2017-02-23T00:03:28.983Z,0
2017-02-23T00:04:28.628Z,0
2017-02-23T00:05:28.500Z,0
2017-02-23T00:06:29.459Z,0
2017-02-23T00:07:29.479Z,0
2017-02-23T00:08:28.742Z,0
2017-02-23T00:09:29.139Z,0
2017-02-23T00:10:29.055Z,0
2017-02-23T00:11:28.416Z,0
2017-02-23T00:12:28.429Z,0
2017-02-23T00:13:29.271Z,0
2017-02-23T00:14:29.285Z,0
2017-02-23T00:15:28.911Z,0
2017-02-23T00:16:29.576Z,0
2017-02-23T00:17:29.380Z,0
2017-02-23T00:18:29.373Z,0
2017-02-23T00:19:29.029Z,0
2017-02-23T00:20:29.078Z,0
2017-02-23T00:21:29.738Z,0
2017-02-23T00:22:29.899Z,0
2017-02-23T00:23:29.140Z,0
2017-02-23T00:24:29.569Z,0
2017-02-23T00:25:29.190Z,0
2017-02-23T00:26:29.063Z,0
2017-02-23T00:27:29.643Z,0
2017-02-23T00:28:29.664Z,0
2017-02-23T00:29:29.692Z,0
2017-02-23T00:30:30.108Z,0
2017-02-23T00:31:29.981Z,0
2017-02-23T00:32:29.373Z,0
2017-02-23T00:33:29.387Z,0
2017-02-23T00:34:29.027Z,0
2017-02-23T00:35:29.444Z,0
2017-02-23T00:36:30.521Z,0
2017-02-23T00:37:29.906Z,0
2017-02-23T00:38:29.942Z,0
2017-02-23T00:39:30.359Z,0
2017-02-23T00:40:29.993Z,0
2017-02-23T00:41:30.668Z,0
2017-02-23T00:42:30.468Z,0
2017-02-23T00:43:29.278Z,0
2017-02-23T00:44:29.711Z,0
2017-02-23T00:45:30.515Z,0
2017-02-23T00:46:30.032Z,0
2017-02-23T00:47:29.790Z,0
2017-02-23T00:48:29.793Z,0
2017-02-23T00:49:29.458Z,0
2017-02-23T00:50:30.254Z,0
2017-02-23T00:51:30.158Z,0
2017-02-23T00:52:29.919Z,0
2017-02-23T00:53:29.956Z,0
2017-02-23T00:54:30.364Z,0
2017-02-23T00:55:30.410Z,0
2017-02-23T00:56:30.270Z,0
2017-02-23T00:57:30.466Z,0
2017-02-23T00:58:30.520Z,0
2017-02-23T00:59:30.509Z,0
2017-02-23T01:00:30.529Z,0
2017-02-23T01:01:30.414Z,0
2017-02-23T01:02:30.586Z,0
2017-02-23T01:03:30.999Z,0
2017-02-23T01:04:29.852Z,0
2017-02-23T01:05:30.656Z,0
2017-02-23T01:06:30.569Z,0
2017-02-23T01:07:30.343Z,0
2017-02-23T01:08:30.747Z,0
2017-02-23T01:09:30.781Z,0
2017-02-23T01:10:30.416Z,0
2017-02-23T01:11:31.472Z,0
2017-02-23T01:12:30.457Z,0
2017-02-23T01:13:30.895Z,0
2017-02-23T01:14:31.308Z,0
2017-02-23T01:15:30.550Z,0
2017-02-23T01:16:30.828Z,0
2017-02-23T01:17:30.585Z,0
2017-02-23T01:18:29.857Z,0
2017-02-23T01:19:31.441Z,0
2017-02-23T01:20:31.115Z,0
2017-02-23T01:21:30.582Z,0
2017-02-23T01:22:30.364Z,0
2017-02-23T01:23:30.405Z,0
2017-02-23T01:24:31.221Z,0
2017-02-23T01:25:31.242Z,0
2017-02-23T01:26:31.487Z,0
2017-02-23T01:27:30.871Z,0
2017-02-23T01:28:30.896Z,0
2017-02-23T01:29:30.953Z,0
2017-02-23T01:30:31.362Z,0
2017-02-23T01:31:32.195Z,0
2017-02-23T01:32:31.411Z,0
2017-02-23T01:33:30.657Z,0
2017-02-23T01:34:31.467Z,0
2017-02-23T01:35:31.493Z,0
2017-02-23T01:36:30.970Z,0
2017-02-23T01:37:31.580Z,0
2017-02-23T01:38:30.800Z,0
2017-02-23T01:39:31.196Z,0
2017-02-23T01:40:30.822Z,0
2017-02-23T01:41:31.918Z,0
2017-02-23T01:42:32.070Z,0
2017-02-23T01:43:30.952Z,0
2017-02-23T01:44:32.128Z,0
2017-02-23T01:45:30.969Z,0
2017-02-23T01:46:31.639Z,0
2017-02-23T01:47:31.439Z,0
2017-02-23T01:48:31.056Z,0
2017-02-23T01:49:31.477Z,0
2017-02-23T01:50:31.941Z,0
2017-02-23T01:51:32.565Z,0
2017-02-23T01:52:31.558Z,0
2017-02-23T01:53:33.859Z,0
2017-02-23T01:54:31.199Z,0
2017-02-23T01:55:31.644Z,0
2017-02-23T01:56:31.665Z,0
2017-02-23T01:57:32.746Z,0
2017-02-23T01:58:31.715Z,0
2017-02-23T01:59:32.136Z,0
2017-02-23T02:00:32.162Z,0
2017-02-23T02:01:32.194Z,0
2017-02-23T02:02:32.086Z,0
2017-02-23T02:03:32.251Z,0
2017-02-23T02:04:32.287Z,0
2017-02-23T02:05:31.913Z,0
2017-02-23T02:06:31.944Z,0
2017-02-23T02:07:32.601Z,0
2017-02-23T02:08:31.967Z,0
2017-02-23T02:09:32.411Z,0
2017-02-23T02:10:32.444Z,0
2017-02-23T02:11:32.861Z,0
2017-02-23T02:12:32.734Z,0
2017-02-23T02:13:32.934Z,0
2017-02-23T02:14:32.538Z,0
2017-02-23T02:15:31.780Z,0
2017-02-23T02:16:31.813Z,0
2017-02-23T02:17:33.281Z,0
2017-02-23T02:18:32.259Z,0
2017-02-23T02:19:31.891Z,0
2017-02-23T02:20:32.316Z,0
2017-02-23T02:21:32.748Z,0
2017-02-23T02:22:32.633Z,0
2017-02-23T02:23:32.385Z,0
2017-02-23T02:24:32.831Z,0
2017-02-23T02:25:32.452Z,0
2017-02-23T02:26:32.488Z,0
2017-02-23T02:27:32.365Z,0
2017-02-23T02:28:32.926Z,0
2017-02-23T02:29:32.559Z,0
2017-02-23T02:30:33.423Z,0
2017-02-23T02:31:32.616Z,0
2017-02-23T02:32:33.328Z,0
2017-02-23T02:33:32.674Z,0
2017-02-23T02:34:32.686Z,0
2017-02-23T02:35:33.141Z,0
2017-02-23T02:36:32.740Z,0
2017-02-23T02:37:32.625Z,0
2017-02-23T02:38:32.822Z,0
2017-02-23T02:39:32.426Z,0
2017-02-23T02:40:33.260Z,0
2017-02-23T02:41:33.288Z,0
2017-02-23T02:42:33.964Z,0
2017-02-23T02:43:32.149Z,0
2017-02-23T02:44:32.561Z,0
2017-02-23T02:45:32.983Z,0
2017-02-23T02:46:33.812Z,0
2017-02-23T02:47:32.905Z,0
2017-02-23T02:48:33.465Z,0
2017-02-23T02:49:33.510Z,0
2017-02-23T02:50:33.535Z,0
2017-02-23T02:51:33.556Z,0
2017-02-23T02:52:33.476Z,0
2017-02-23T02:53:33.209Z,0
2017-02-23T02:54:33.634Z,0
2017-02-23T02:55:33.266Z,0
2017-02-23T02:56:33.283Z,0
2017-02-23T02:57:33.981Z,0
2017-02-23T02:58:33.741Z,0
2017-02-23T02:59:34.154Z,0
2017-02-23T03:00:34.187Z,0
2017-02-23T03:01:32.648Z,0
2017-02-23T03:02:33.712Z,0
2017-02-23T03:03:33.481Z,0
2017-02-23T03:04:33.118Z,0
2017-02-23T03:05:33.934Z,0
2017-02-23T03:06:33.564Z,0
2017-02-23T03:07:33.864Z,0
2017-02-23T03:08:34.014Z,0
2017-02-23T03:09:34.034Z,0
2017-02-23T03:10:33.663Z,0
2017-02-23T03:11:34.495Z,0
2017-02-23T03:12:33.984Z,0
2017-02-23T03:13:33.749Z,0
2017-02-23T03:14:34.181Z,0
2017-02-23T03:15:34.194Z,0
2017-02-23T03:16:33.819Z,0
2017-02-23T03:17:34.112Z,0
2017-02-23T03:18:33.897Z,0
2017-02-23T03:19:33.934Z,0
2017-02-23T03:20:34.351Z,0
2017-02-23T03:21:33.963Z,0
2017-02-23T03:22:34.244Z,0
2017-02-23T03:23:33.632Z,0
2017-02-23T03:24:33.649Z,0
2017-02-23T03:25:34.470Z,0
2017-02-23T03:26:33.707Z,0
2017-02-23T03:27:34.778Z,0
2017-02-23T03:28:33.777Z,0
2017-02-23T03:29:33.778Z,0
2017-02-23T03:30:34.598Z,0
2017-02-23T03:31:35.034Z,0
2017-02-23T03:32:34.931Z,0
2017-02-23T03:33:34.283Z,0
2017-02-23T03:34:34.317Z,0
2017-02-23T03:35:34.343Z,0
2017-02-23T03:36:34.399Z,0
2017-02-23T03:37:35.051Z,0
2017-02-23T03:38:34.414Z,0
2017-02-23T03:39:34.473Z,0
2017-02-23T03:40:35.281Z,0
2017-02-23T03:41:34.094Z,0
2017-02-23T03:42:34.795Z,0
2017-02-23T03:43:34.959Z,0
2017-02-23T03:44:34.977Z,0
2017-02-23T03:45:35.017Z,0
2017-02-23T03:46:35.039Z,0
2017-02-23T03:47:34.931Z,0
2017-02-23T03:48:35.116Z,0
2017-02-23T03:49:34.725Z,0
2017-02-23T03:50:34.754Z,0
2017-02-23T03:51:34.779Z,0
2017-02-23T03:52:35.447Z,0
2017-02-23T03:53:35.227Z,0
2017-02-23T03:54:34.460Z,0
2017-02-23T03:55:35.285Z,0
2017-02-23T03:56:34.918Z,0
2017-02-23T03:57:35.611Z,0
2017-02-23T03:58:35.351Z,0
2017-02-23T03:59:35.793Z,0
2017-02-23T04:00:35.409Z,0
2017-02-23T04:01:35.058Z,0
2017-02-23T04:02:34.546Z,0
2017-02-23T04:03:35.103Z,0
2017-02-23T04:04:35.132Z,0
2017-02-23T04:05:35.157Z,0
2017-02-23T04:06:35.194Z,0
2017-02-23T04:07:36.266Z,0
2017-02-23T04:08:35.640Z,0
2017-02-23T04:09:35.684Z,0
2017-02-23T04:10:35.677Z,0
2017-02-23T04:11:35.318Z,0
2017-02-23T04:12:34.939Z,0
2017-02-23T04:13:35.658Z,0
2017-02-23T04:14:36.209Z,0
2017-02-23T04:15:35.825Z,0
2017-02-23T04:16:35.475Z,0
2017-02-23T04:17:35.871Z,0
2017-02-23T04:18:36.155Z,0
2017-02-23T04:19:35.948Z,0
2017-02-23T04:20:35.576Z,0
2017-02-23T04:21:36.382Z,0
2017-02-23T04:22:35.215Z,0
2017-02-23T04:23:35.491Z,0
2017-02-23T04:24:35.276Z,0
2017-02-23T04:25:36.097Z,0
2017-02-23T04:26:35.730Z,0
2017-02-23T04:27:36.159Z,0
2017-02-23T04:28:36.427Z,0
2017-02-23T04:29:35.407Z,0
2017-02-23T04:30:36.232Z,0
2017-02-23T04:31:35.465Z,0
2017-02-23T04:32:35.530Z,0
2017-02-23T04:33:36.603Z,0
2017-02-23T04:34:35.947Z,0
2017-02-23T04:35:36.353Z,0
2017-02-23T04:36:36.790Z,0
2017-02-23T04:37:36.427Z,0
2017-02-23T04:38:36.311Z,0
2017-02-23T04:39:36.067Z,0
2017-02-23T04:40:35.316Z,0
2017-02-23T04:41:36.145Z,0
2017-02-23T04:42:35.761Z,0
2017-02-23T04:43:36.466Z,0
2017-02-23T04:44:36.227Z,0
2017-02-23T04:45:36.636Z,0
2017-02-23T04:46:36.653Z,0
2017-02-23T04:47:36.693Z,0
2017-02-23T04:48:36.989Z,0
2017-02-23T04:49:35.955Z,0
2017-02-23T04:50:36.379Z,0
2017-02-23T04:51:36.004Z,0
2017-02-23T04:52:36.837Z,0
2017-02-23T04:53:37.102Z,0
2017-02-23T04:54:36.482Z,0
2017-02-23T04:55:36.899Z,0
2017-02-23T04:56:37.334Z,0
2017-02-23T04:57:36.973Z,0
2017-02-23T04:58:36.842Z,0
2017-02-23T04:59:37.005Z,0
2017-02-23T05:00:36.646Z,0
2017-02-23T05:01:37.477Z,0
2017-02-23T05:02:37.086Z,0
2017-02-23T05:03:36.175Z,0
2017-02-23T05:04:37.534Z,0
2017-02-23T05:05:37.171Z,0
2017-02-23T05:06:37.595Z,0
2017-02-23T05:07:36.812Z,0
2017-02-23T05:08:37.116Z,0
2017-02-23T05:09:37.673Z,0
2017-02-23T05:10:37.693Z,0
2017-02-23T05:11:37.723Z,0
2017-02-23T05:12:37.355Z,0
2017-02-23T05:13:37.235Z,0
2017-02-23T05:14:37.405Z,0
2017-02-23T05:15:37.454Z,0
2017-02-23T05:16:37.461Z,0
2017-02-23T05:17:37.098Z,0
2017-02-23T05:18:37.784Z,0
2017-02-23T05:19:37.965Z,0
2017-02-23T05:20:37.579Z,0
2017-02-23T05:21:37.218Z,0
2017-02-23T05:22:37.647Z,0
2017-02-23T05:23:37.899Z,0
2017-02-23T05:24:38.072Z,0
2017-02-23T05:25:37.705Z,0
2017-02-23T05:26:37.746Z,0
2017-02-23T05:27:37.357Z,0
2017-02-23T05:28:37.259Z,0
2017-02-23T05:29:37.432Z,0
2017-02-23T05:30:38.237Z,0
2017-02-23T05:31:37.065Z,0
2017-02-23T05:32:38.299Z,0
2017-02-23T05:33:37.778Z,0
2017-02-23T05:34:37.532Z,0
2017-02-23T05:35:36.804Z,0
2017-02-23T05:36:37.997Z,0
2017-02-23T05:37:37.629Z,0
2017-02-23T05:38:37.911Z,0
2017-02-23T05:39:37.683Z,0
2017-02-23T05:40:37.708Z,0
2017-02-23T05:41:37.745Z,0
2017-02-23T05:42:38.149Z,0
2017-02-23T05:43:38.462Z,0
2017-02-23T05:44:38.611Z,0
2017-02-23T05:45:37.849Z,0
2017-02-23T05:46:37.496Z,0
2017-02-23T05:47:37.901Z,0
2017-02-23T05:48:38.194Z,0
2017-02-23T05:49:38.367Z,0
2017-02-23T05:50:38.384Z,0
2017-02-23T05:51:38.037Z,0
2017-02-23T05:52:38.054Z,0
2017-02-23T05:53:38.710Z,0
2017-02-23T05:54:38.879Z,0
2017-02-23T05:55:38.507Z,0
2017-02-23T05:56:38.953Z,0
2017-02-23T05:57:38.580Z,0
2017-02-23T05:58:38.457Z,0
2017-02-23T05:59:38.635Z,0
2017-02-23T06:00:38.644Z,0
2017-02-23T06:01:38.288Z,0
2017-02-23T06:02:37.947Z,0
2017-02-23T06:03:39.389Z,0
2017-02-23T06:04:39.151Z,0
2017-02-23T06:05:38.799Z,0
2017-02-23T06:06:37.635Z,0
2017-02-23T06:07:38.441Z,0
2017-02-23T06:08:38.070Z,0
2017-02-23T06:09:37.954Z,0
2017-02-23T06:10:38.531Z,0
2017-02-23T06:11:38.555Z,0
2017-02-23T06:12:39.596Z,0
2017-02-23T06:13:38.616Z,0
2017-02-23T06:14:39.278Z,0
2017-02-23T06:15:39.443Z,0
2017-02-23T06:16:39.488Z,0
2017-02-23T06:17:38.308Z,0
2017-02-23T06:18:39.173Z,0
2017-02-23T06:19:38.630Z,0
2017-02-23T06:20:39.187Z,0
2017-02-23T06:21:39.219Z,0
2017-02-23T06:22:38.452Z,0
2017-02-23T06:23:38.865Z,0
2017-02-23T06:24:39.563Z,0
2017-02-23T06:25:39.326Z,0
2017-02-23T06:26:39.747Z,0
2017-02-23T06:27:39.404Z,0
2017-02-23T06:28:39.027Z,0
2017-02-23T06:29:39.285Z,0
2017-02-23T06:30:39.054Z,0
2017-02-23T06:31:39.111Z,0
2017-02-23T06:32:39.114Z,0
2017-02-23T06:33:39.548Z,0
2017-02-23T06:34:39.817Z,0
2017-02-23T06:35:39.602Z,0
2017-02-23T06:36:39.643Z,0
2017-02-23T06:37:40.092Z,0
2017-02-23T06:38:39.311Z,0
2017-02-23T06:39:39.587Z,0
2017-02-23T06:40:39.337Z,0
2017-02-23T06:41:39.374Z,0
2017-02-23T06:42:39.403Z,0
2017-02-23T06:43:39.416Z,0
2017-02-23T06:44:39.717Z,0
2017-02-23T06:45:39.493Z,0
2017-02-23T06:46:39.922Z,0
2017-02-23T06:47:40.330Z,0
2017-02-23T06:48:39.564Z,0
2017-02-23T06:49:40.224Z,0
2017-02-23T06:50:39.629Z,0
2017-02-23T06:51:38.873Z,0
2017-02-23T06:52:39.282Z,0
2017-02-23T06:53:39.295Z,0
2017-02-23T06:54:39.997Z,0
2017-02-23T06:55:39.761Z,0
2017-02-23T06:56:39.765Z,0
2017-02-23T06:57:39.426Z,0
2017-02-23T06:58:39.847Z,0
2017-02-23T06:59:39.696Z,0
2017-02-23T07:00:40.269Z,0
2017-02-23T07:01:40.306Z,0
2017-02-23T07:02:39.581Z,0
2017-02-23T07:03:39.982Z,0
2017-02-23T07:04:40.647Z,0
2017-02-23T07:05:40.423Z,0
2017-02-23T07:06:39.268Z,0
2017-02-23T07:07:40.873Z,0
2017-02-23T07:08:40.906Z,0
2017-02-23T07:09:40.808Z,0
2017-02-23T07:10:40.551Z,0
2017-02-23T07:11:40.992Z,0
2017-02-23T07:12:39.817Z,0
2017-02-23T07:13:39.834Z,0
2017-02-23T07:14:40.518Z,0
2017-02-23T07:15:39.906Z,0
2017-02-23T07:16:39.927Z,0
2017-02-23T07:17:40.348Z,5
2017-02-23T07:18:40.809Z,5
2017-02-23T07:19:41.264Z,0
2017-02-23T07:20:40.034Z,5
2017-02-23T07:21:40.460Z,0
2017-02-23T07:22:40.107Z,0
2017-02-23T07:23:40.896Z,5
2017-02-23T07:24:41.185Z,5
2017-02-23T07:25:40.587Z,5
2017-02-23T07:26:41.002Z,5
2017-02-23T07:27:40.683Z,5
2017-02-23T07:28:41.064Z,5
2017-02-23T07:29:41.325Z,5
2017-02-23T07:30:40.729Z,5
2017-02-23T07:31:40.350Z,5
2017-02-23T07:32:40.371Z,5
2017-02-23T07:33:40.808Z,5
2017-02-23T07:34:41.450Z,5
2017-02-23T07:35:40.837Z,5
2017-02-23T07:36:41.257Z,5
2017-02-23T07:37:40.908Z,5
2017-02-23T07:38:41.314Z,5
2017-02-23T07:39:41.191Z,5
2017-02-23T07:40:41.375Z,5
2017-02-23T07:41:41.396Z,5
2017-02-23T07:42:41.022Z,5
2017-02-23T07:43:41.067Z,5
2017-02-23T07:44:40.943Z,5
2017-02-23T07:45:40.346Z,10
2017-02-23T07:46:41.565Z,5
2017-02-23T07:47:41.597Z,10
2017-02-23T07:48:41.983Z,10
2017-02-23T07:49:41.488Z,5
2017-02-23T07:50:40.856Z,10
2017-02-23T07:51:41.293Z,10
2017-02-23T07:52:40.907Z,10
2017-02-23T07:53:41.735Z,10
2017-02-23T07:54:41.644Z,10
2017-02-23T07:55:41.016Z,10
2017-02-23T07:56:41.037Z,15
2017-02-23T07:57:42.234Z,10
2017-02-23T07:58:41.091Z,10
2017-02-23T07:59:42.547Z,15
2017-02-23T08:00:41.916Z,10
2017-02-23T08:01:42.353Z,5
2017-02-23T08:02:41.585Z,5
2017-02-23T08:03:42.006Z,5
2017-02-23T08:04:42.703Z,5
2017-02-23T08:05:42.072Z,5
2017-02-23T08:06:42.092Z,5
2017-02-23T08:07:41.317Z,10
2017-02-23T08:08:41.358Z,10
2017-02-23T08:09:42.429Z,10
2017-02-23T08:10:42.208Z,5
2017-02-23T08:11:41.832Z,5
2017-02-23T08:12:41.856Z,10
2017-02-23T08:13:41.884Z,10
2017-02-23T08:14:41.914Z,10
2017-02-23T08:15:42.180Z,10
2017-02-23T08:16:41.556Z,10
2017-02-23T08:17:41.997Z,10
2017-02-23T08:18:42.425Z,10
2017-02-23T08:19:42.070Z,10
2017-02-23T08:20:42.315Z,15
2017-02-23T08:21:42.510Z,15
2017-02-23T08:22:42.932Z,10
2017-02-23T08:23:42.973Z,10
2017-02-23T08:24:42.202Z,10
2017-02-23T08:25:42.454Z,10
2017-02-23T08:26:42.248Z,10
2017-02-23T08:27:41.884Z,10
2017-02-23T08:28:41.895Z,10
2017-02-23T08:29:42.322Z,10
2017-02-23T08:30:42.631Z,15
2017-02-23T08:31:42.374Z,15
2017-02-23T08:32:42.813Z,10
2017-02-23T08:33:43.239Z,15
2017-02-23T08:34:42.858Z,10
2017-02-23T08:35:43.589Z,15
2017-02-23T08:36:42.522Z,10
2017-02-23T08:37:42.530Z,10
2017-02-23T08:38:42.964Z,10
2017-02-23T08:39:42.213Z,10
2017-02-23T08:40:42.886Z,15
2017-02-23T08:41:42.263Z,15
2017-02-23T08:42:42.295Z,10
2017-02-23T08:43:43.509Z,15
2017-02-23T08:44:42.733Z,15
2017-02-23T08:45:43.418Z,15
2017-02-23T08:46:43.590Z,10
2017-02-23T08:47:42.827Z,15
2017-02-23T08:48:42.456Z,15
2017-02-23T08:49:42.876Z,20
2017-02-23T08:50:42.756Z,10
2017-02-23T08:51:43.314Z,10
2017-02-23T08:52:42.555Z,15
2017-02-23T08:53:43.391Z,15
2017-02-23T08:54:43.424Z,10
2017-02-23T08:55:43.710Z,10
2017-02-23T08:56:43.065Z,15
2017-02-23T08:57:42.702Z,15
2017-02-23T08:58:43.142Z,10
2017-02-23T08:59:42.743Z,10
2017-02-23T09:00:43.824Z,15
2017-02-23T09:01:43.230Z,15
2017-02-23T09:02:42.842Z,10
2017-02-23T09:03:43.262Z,15
2017-02-23T09:04:42.893Z,15
2017-02-23T09:05:43.952Z,15
2017-02-23T09:06:43.732Z,10
2017-02-23T09:07:42.976Z,15
2017-02-23T09:08:43.009Z,15
2017-02-23T09:09:43.038Z,15
2017-02-23T09:10:43.311Z,15
2017-02-23T09:11:43.888Z,15
2017-02-23T09:12:43.892Z,15
2017-02-23T09:13:43.173Z,10
2017-02-23T09:14:43.970Z,15
2017-02-23T09:15:44.655Z,15
2017-02-23T09:16:44.399Z,10
2017-02-23T09:17:43.645Z,10
2017-02-23T09:18:43.264Z,15
2017-02-23T09:19:43.296Z,15
2017-02-23T09:20:43.962Z,20
2017-02-23T09:21:43.739Z,15
2017-02-23T09:22:44.167Z,20
2017-02-23T09:23:44.196Z,15
2017-02-23T09:24:43.828Z,15
2017-02-23T09:25:44.114Z,15
2017-02-23T09:26:44.690Z,15
2017-02-23T09:27:44.698Z,15
2017-02-23T09:28:44.334Z,20
2017-02-23T09:29:43.976Z,15
2017-02-23T09:30:44.668Z,15
2017-02-23T09:31:44.034Z,15
2017-02-23T09:32:44.452Z,25
2017-02-23T09:33:44.467Z,15
2017-02-23T09:34:44.519Z,20
2017-02-23T09:35:45.177Z,25
2017-02-23T09:36:43.757Z,25
2017-02-23T09:37:45.009Z,30
2017-02-23T09:38:44.226Z,25
2017-02-23T09:39:43.911Z,25
2017-02-23T09:40:44.131Z,20
2017-02-23T09:41:44.288Z,35
2017-02-23T09:42:44.325Z,25
2017-02-23T09:43:43.967Z,25
2017-02-23T09:44:44.825Z,30
2017-02-23T09:45:44.648Z,40
2017-02-23T09:46:44.819Z,30
2017-02-23T09:47:44.489Z,30
2017-02-23T09:48:44.473Z,45
2017-02-23T09:49:45.315Z,30
2017-02-23T09:50:44.391Z,30
2017-02-23T09:51:44.166Z,25
2017-02-23T09:52:44.997Z,30
2017-02-23T09:53:43.837Z,35
2017-02-23T09:54:44.655Z,30
2017-02-23T09:55:45.331Z,25
2017-02-23T09:56:45.099Z,35
2017-02-23T09:57:44.728Z,35
2017-02-23T09:58:44.769Z,25
2017-02-23T09:59:45.601Z,20
2017-02-23T10:00:44.688Z,20
2017-02-23T10:01:44.851Z,30
2017-02-23T10:02:45.280Z,35
2017-02-23T10:03:44.893Z,25
2017-02-23T10:04:44.938Z,25
2017-02-23T10:05:45.198Z,30
2017-02-23T10:06:45.374Z,35
2017-02-23T10:07:45.011Z,35
2017-02-23T10:08:44.260Z,35
2017-02-23T10:09:44.668Z,55
2017-02-23T10:10:45.729Z,55
2017-02-23T10:11:45.510Z,55
2017-02-23T10:12:44.737Z,55
2017-02-23T10:13:45.176Z,60
2017-02-23T10:14:44.809Z,50
2017-02-23T10:15:46.269Z,45
2017-02-23T10:16:45.650Z,35
2017-02-23T10:17:46.079Z,45
2017-02-23T10:18:45.702Z,45
2017-02-23T10:19:45.359Z,45
2017-02-23T10:20:46.017Z,50
2017-02-23T10:21:45.798Z,40
2017-02-23T10:22:45.417Z,55
2017-02-23T10:23:46.247Z,60
2017-02-23T10:24:45.088Z,55
2017-02-23T10:25:46.561Z,50
2017-02-23T10:26:45.917Z,50
2017-02-23T10:27:45.949Z,50
2017-02-23T10:28:46.384Z,55
2017-02-23T10:29:45.763Z,50
2017-02-23T10:30:45.123Z,40
2017-02-23T10:31:45.661Z,45
2017-02-23T10:32:45.678Z,40
2017-02-23T10:33:45.726Z,45
2017-02-23T10:34:45.754Z,45
2017-02-23T10:35:46.431Z,40
2017-02-23T10:36:46.221Z,45
2017-02-23T10:37:46.637Z,30
2017-02-23T10:38:45.854Z,30
2017-02-23T10:39:45.876Z,25
2017-02-23T10:40:45.903Z,30
2017-02-23T10:41:46.980Z,35
2017-02-23T10:42:46.384Z,45
2017-02-23T10:43:45.988Z,40
2017-02-23T10:44:46.418Z,35
2017-02-23T10:45:46.043Z,45
2017-02-23T10:46:46.720Z,40
2017-02-23T10:47:46.904Z,50
2017-02-23T10:48:46.521Z,55
2017-02-23T10:49:46.161Z,45
2017-02-23T10:50:45.790Z,50
2017-02-23T10:51:46.063Z,50
2017-02-23T10:52:46.268Z,45
2017-02-23T10:53:45.872Z,40
2017-02-23T10:54:46.698Z,45
2017-02-23T10:55:46.720Z,45
2017-02-23T10:56:46.207Z,50
2017-02-23T10:57:47.179Z,55
2017-02-23T10:58:46.444Z,65
2017-02-23T10:59:46.084Z,70
2017-02-23T11:00:46.094Z,55
2017-02-23T11:01:47.163Z,50
2017-02-23T11:02:46.515Z,65
2017-02-23T11:03:46.548Z,65
2017-02-23T11:04:46.978Z,60
2017-02-23T11:05:47.030Z,55
2017-02-23T11:06:47.281Z,65
2017-02-23T11:07:46.646Z,55
2017-02-23T11:08:45.888Z,50
2017-02-23T11:09:47.141Z,65
2017-02-23T11:10:47.168Z,70
2017-02-23T11:11:47.442Z,70
2017-02-23T11:12:46.007Z,65
2017-02-23T11:13:46.851Z,85
2017-02-23T11:14:46.856Z,80
2017-02-23T11:15:47.317Z,85
2017-02-23T11:16:47.974Z,100
2017-02-23T11:17:47.755Z,65
2017-02-23T11:18:46.174Z,75
2017-02-23T11:19:47.015Z,70
2017-02-23T11:20:46.637Z,45
2017-02-23T11:21:46.918Z,50
2017-02-23T11:22:47.066Z,60
2017-02-23T11:23:47.103Z,70
2017-02-23T11:24:46.741Z,75
2017-02-23T11:25:47.164Z,70
2017-02-23T11:26:48.229Z,45
2017-02-23T11:27:47.617Z,55
2017-02-23T11:28:47.669Z,40
2017-02-23T11:29:47.294Z,40
2017-02-23T11:30:46.515Z,40
2017-02-23T11:31:47.985Z,40
2017-02-23T11:32:46.956Z,40
2017-02-23T11:33:47.766Z,40
2017-02-23T11:34:47.826Z,45
2017-02-23T11:35:48.251Z,45
2017-02-23T11:36:47.732Z,45
2017-02-23T11:37:47.513Z,50
2017-02-23T11:38:47.121Z,50
2017-02-23T11:39:47.946Z,40
2017-02-23T11:40:47.577Z,60
2017-02-23T11:41:48.261Z,45
2017-02-23T11:42:47.244Z,55
2017-02-23T11:43:47.661Z,60
2017-02-23T11:44:47.686Z,65
2017-02-23T11:45:48.102Z,75
2017-02-23T11:46:47.639Z,80
2017-02-23T11:47:47.780Z,60
2017-02-23T11:48:48.592Z,50
2017-02-23T11:49:48.233Z,135
2017-02-23T11:50:47.050Z,95
2017-02-23T11:51:48.539Z,135
2017-02-23T11:52:48.291Z,70
2017-02-23T11:53:47.544Z,70
2017-02-23T11:54:47.981Z,105
2017-02-23T11:55:47.589Z,85
2017-02-23T11:56:48.299Z,65
2017-02-23T11:57:48.455Z,65
2017-02-23T11:58:48.468Z,60
2017-02-23T11:59:48.120Z,60
2017-02-23T12:00:47.733Z,55
2017-02-23T12:01:48.416Z,85
2017-02-23T12:02:48.211Z,55
2017-02-23T12:03:48.217Z,55
2017-02-23T12:04:48.648Z,50
2017-02-23T12:05:48.265Z,60
2017-02-23T12:06:49.350Z,55
2017-02-23T12:07:49.126Z,55
2017-02-23T12:08:48.351Z,55
2017-02-23T12:09:47.984Z,65
2017-02-23T12:10:48.420Z,60
2017-02-23T12:11:48.285Z,45
2017-02-23T12:12:48.471Z,50
2017-02-23T12:13:49.282Z,40
2017-02-23T12:14:48.547Z,40
2017-02-23T12:15:48.944Z,40
2017-02-23T12:16:49.236Z,35
2017-02-23T12:17:48.621Z,30
2017-02-23T12:18:48.638Z,40
2017-02-23T12:19:49.069Z,45
2017-02-23T12:20:48.683Z,30
2017-02-23T12:21:49.392Z,15
2017-02-23T12:22:48.740Z,25
2017-02-23T12:23:48.789Z,40
2017-02-23T12:24:49.214Z,45
2017-02-23T12:25:48.055Z,30
2017-02-23T12:26:49.568Z,20
2017-02-23T12:27:49.288Z,20
2017-02-23T12:28:48.929Z,35
2017-02-23T12:29:48.942Z,40
2017-02-23T12:30:48.186Z,35
2017-02-23T12:31:48.478Z,25
2017-02-23T12:32:49.039Z,35
2017-02-23T12:33:48.668Z,60
2017-02-23T12:34:49.105Z,30
2017-02-23T12:35:49.502Z,35
2017-02-23T12:36:49.398Z,60
2017-02-23T12:37:49.168Z,65
2017-02-23T12:38:49.991Z,50
2017-02-23T12:39:50.016Z,55
2017-02-23T12:40:48.857Z,70
2017-02-23T12:41:49.530Z,45
2017-02-23T12:42:49.707Z,35
2017-02-23T12:43:48.932Z,35
2017-02-23T12:44:49.356Z,50
2017-02-23T12:45:49.793Z,100
2017-02-23T12:46:49.030Z,65
2017-02-23T12:47:49.694Z,35
2017-02-23T12:48:49.868Z,30
2017-02-23T12:49:49.903Z,40
2017-02-23T12:50:49.548Z,40
2017-02-23T12:51:49.177Z,40
2017-02-23T12:52:49.834Z,65
2017-02-23T12:53:49.269Z,60
2017-02-23T12:54:50.048Z,50
2017-02-23T12:55:49.681Z,65
2017-02-23T12:56:49.313Z,35
2017-02-23T12:57:50.373Z,35
2017-02-23T12:58:50.583Z,40
2017-02-23T12:59:50.595Z,55
2017-02-23T13:00:49.823Z,35
2017-02-23T13:01:50.680Z,45
2017-02-23T13:02:50.101Z,40
2017-02-23T13:03:49.910Z,45
2017-02-23T13:04:50.323Z,50
2017-02-23T13:05:49.571Z,40
2017-02-23T13:06:49.588Z,35
2017-02-23T13:07:50.657Z,35
2017-02-23T13:08:50.829Z,35
2017-02-23T13:09:50.082Z,35
2017-02-23T13:10:50.086Z,35
2017-02-23T13:11:50.107Z,35
2017-02-23T13:12:51.189Z,35
2017-02-23T13:13:49.794Z,30
2017-02-23T13:14:50.218Z,25
2017-02-23T13:15:50.271Z,20
2017-02-23T13:16:49.855Z,20
2017-02-23T13:17:50.148Z,15
2017-02-23T13:18:50.721Z,20
2017-02-23T13:19:51.158Z,20
2017-02-23T13:20:50.789Z,15
2017-02-23T13:21:50.395Z,15
2017-02-23T13:22:50.687Z,20
2017-02-23T13:23:50.480Z,15
2017-02-23T13:24:50.521Z,15
2017-02-23T13:25:50.897Z,15
2017-02-23T13:26:50.955Z,15
2017-02-23T13:27:50.871Z,20
2017-02-23T13:28:50.995Z,20
2017-02-23T13:29:51.069Z,20
2017-02-23T13:30:51.053Z,20
2017-02-23T13:31:50.678Z,35
2017-02-23T13:32:51.359Z,20
2017-02-23T13:33:51.140Z,25
2017-02-23T13:34:49.989Z,20
2017-02-23T13:35:50.783Z,15
2017-02-23T13:36:50.033Z,15
2017-02-23T13:37:51.492Z,15
2017-02-23T13:38:51.272Z,10
2017-02-23T13:39:51.300Z,10
2017-02-23T13:40:50.957Z,10
2017-02-23T13:41:50.949Z,10
2017-02-23T13:42:51.238Z,10
2017-02-23T13:43:51.807Z,10
2017-02-23T13:44:51.446Z,10
2017-02-23T13:45:51.873Z,15
2017-02-23T13:46:51.106Z,15
2017-02-23T13:47:52.179Z,15
2017-02-23T13:48:51.548Z,15
2017-02-23T13:49:51.968Z,15
2017-02-23T13:50:51.605Z,25
2017-02-23T13:51:50.838Z,25
2017-02-23T13:52:51.522Z,15
2017-02-23T13:53:51.687Z,25
2017-02-23T13:54:51.724Z,20
2017-02-23T13:55:52.177Z,35
2017-02-23T13:56:51.377Z,30
2017-02-23T13:57:52.054Z,25
2017-02-23T13:58:51.810Z,20
2017-02-23T13:59:51.451Z,25
2017-02-23T14:00:52.272Z,25
2017-02-23T14:01:51.137Z,20
2017-02-23T14:02:51.794Z,20
2017-02-23T14:03:51.183Z,15
2017-02-23T14:04:52.031Z,15
2017-02-23T14:05:52.029Z,15
2017-02-23T14:06:51.638Z,15
2017-02-23T14:07:52.326Z,20
2017-02-23T14:08:51.708Z,20
2017-02-23T14:09:52.531Z,25
2017-02-23T14:10:52.160Z,20
2017-02-23T14:11:51.801Z,25
2017-02-23T14:12:52.118Z,30
2017-02-23T14:13:52.231Z,35
2017-02-23T14:14:52.280Z,30
2017-02-23T14:15:52.340Z,30
2017-02-23T14:16:52.312Z,30
2017-02-23T14:17:53.010Z,25
2017-02-23T14:18:52.386Z,20
2017-02-23T14:19:52.423Z,20
2017-02-23T14:20:51.640Z,15
2017-02-23T14:21:52.060Z,15
2017-02-23T14:22:52.741Z,15
2017-02-23T14:23:52.134Z,10
2017-02-23T14:24:51.746Z,10
2017-02-23T14:25:52.575Z,10
2017-02-23T14:26:52.984Z,10
2017-02-23T14:27:53.593Z,10
2017-02-23T14:28:51.474Z,10
2017-02-23T14:29:52.686Z,10
2017-02-23T14:30:52.719Z,10
2017-02-23T14:31:52.339Z,10
2017-02-23T14:32:52.601Z,10